King, WI

10:32 AM CST on January 26, 2015 (GMT -0600)
APRSWXNET Waupaca WI US | Change Station
CLOSE
Current Station
Personal Weather Station
Location: King, WI
Elevation: 889 ft
Nearby Weather Stations

Elev 889 ft 44.34 °N, 89.12 °W | Updated 32 minutes ago

Snow
Snow
19 °F
Feels Like 19 °F
N
0
Wind Variable Wind from NNE
Gusts 3.0 mph

Today
High -- | Low -- °F
--% Chance of Precip.
Yesterday
High -- | Low -- °F
Precip. -- in
7:21 AM 4:57 PM
Waxing Crescent, 44% visible
Pressure 29.86 in
Visibility 1.8 miles
Clouds Mostly Cloudy 1400 ft
Overcast 2100 ft
Windchill 19 °F
Dew Point 16 °F
Humidity 86%
Rainfall 0.00 in
Snow Depth Not available.
UV 0 out of 12
Pollen .10 out of 12
Air Quality Not available.
Flu Activity Not available.
METAR KPCZ 261555Z AUTO 15006KT 1 3/4SM -SN BKN014 OVC021 M06/M10 A2986 RMK AO2 T10621097

More Conditions Fewer Conditions

Pressure 29.86 in
Visibility 1.8 miles
Clouds Mostly Cloudy 1400 ft
Overcast 2100 ft
Windchill 19 °F
Dew Point 16 °F
Humidity 86%
Rainfall 0.00 in
Snow Depth Not available.
UV 0 out of 12
Pollen .10 out of 12
Air Quality Not available.
Flu Activity Not available.
METAR KPCZ 261555Z AUTO 15006KT 1 3/4SM -SN BKN014 OVC021 M06/M10 A2986 RMK AO2 T10621097

More Conditions Fewer Conditions

10-Day Weather Forecast

Almanac

Astronomy

Jan. 26, 2015 Rise Set
Actual Time
Civil Twilight
Nautical Twilight
Astronomical Twilight
Moon
Length of Visible Light
Length of Day
Tomorrow will be .
, % of the Moon is Illuminated

Today's Extremes

State Highs State Lows

Community

WunderPhotos

Upload Photos

1,790,272 photos uploaded!

WunderBlogs® & News

Nearby

Air Quality

  Air Quality AQ Index Pollutant
Not available.

Snow Depth

Station Depth Elevation

Earthquake Activity

City Distance Mag. Time & Date
Minimum magnitude displayed is 2.5.

Coastal Water Temperatures

Place Temperature

Nearby Weather Stations